createdAt,value
2023-04-25T00:00:21.030Z,2.47
2023-04-25T00:02:48.226Z,2.05
2023-04-25T00:05:18.544Z,2.65
2023-04-25T00:07:46.192Z,1.60
2023-04-25T00:10:13.171Z,3.05
2023-04-25T00:12:41.513Z,1.70
2023-04-25T00:15:09.040Z,10.88
2023-04-25T00:17:36.097Z,1.92
2023-04-25T00:20:06.186Z,2.78
2023-04-25T00:22:35.434Z,1.80
2023-04-25T00:25:02.493Z,2.03
2023-04-25T00:27:29.390Z,2.22
2023-04-25T00:29:56.372Z,1.90
2023-04-25T00:32:23.391Z,2.72
2023-04-25T00:34:50.453Z,2.00
2023-04-25T00:37:17.453Z,2.10
2023-04-25T00:39:44.487Z,3.38
2023-04-25T00:42:12.120Z,2.42
2023-04-25T00:44:39.495Z,2.20
2023-04-25T00:47:07.366Z,2.35
2023-04-25T00:49:34.400Z,2.80
2023-04-25T00:52:01.581Z,2.72
2023-04-25T00:54:28.698Z,1.92
2023-04-25T00:56:56.195Z,2.60
2023-04-25T00:59:23.352Z,1.92
2023-04-25T01:01:50.895Z,3.22
2023-04-25T01:04:18.362Z,4.05
2023-04-25T01:06:46.134Z,2.03
2023-04-25T01:09:14.067Z,2.03
2023-04-25T01:11:41.467Z,1.75
2023-04-25T01:14:08.666Z,3.78
2023-04-25T01:16:35.800Z,2.50
2023-04-25T01:19:04.944Z,4.82
2023-04-25T01:21:32.059Z,2.50
2023-04-25T01:23:59.510Z,2.35
2023-04-25T01:26:26.659Z,2.97
2023-04-25T01:28:53.968Z,2.40
2023-04-25T01:31:21.099Z,2.30
2023-04-25T01:33:49.144Z,3.80
2023-04-25T01:36:16.889Z,2.50
2023-04-25T01:38:45.110Z,2.53
2023-04-25T01:41:12.429Z,4.55
2023-04-25T01:43:39.561Z,2.13
2023-04-25T01:46:06.925Z,3.00
2023-04-25T01:48:34.009Z,2.58
2023-04-25T01:51:01.017Z,2.47
2023-04-25T01:53:28.264Z,2.55
2023-04-25T01:55:55.312Z,2.85
2023-04-25T01:58:22.282Z,4.47
2023-04-25T02:03:33.377Z,3.42
2023-04-25T02:06:00.453Z,2.47
2023-04-25T02:08:27.931Z,2.13
2023-04-25T02:10:54.987Z,2.50
2023-04-25T02:13:21.986Z,3.33
2023-04-25T02:15:49.083Z,2.47
2023-04-25T02:18:17.618Z,3.25
2023-04-25T02:20:45.341Z,4.05
2023-04-25T02:23:12.565Z,3.00
2023-04-25T02:25:39.508Z,2.55
2023-04-25T02:28:06.507Z,2.53
2023-04-25T02:30:33.480Z,2.40
2023-04-25T02:33:03.329Z,2.85
2023-04-25T02:35:30.382Z,2.30
2023-04-25T02:37:57.360Z,2.30
2023-04-25T02:40:24.362Z,3.38
2023-04-25T02:42:51.363Z,2.40
2023-04-25T02:45:18.411Z,3.10
2023-04-25T02:47:45.812Z,2.53
2023-04-25T02:50:12.854Z,2.65
2023-04-25T02:52:39.800Z,2.90
2023-04-25T02:55:07.249Z,3.13
2023-04-25T02:57:34.185Z,7.90
2023-04-25T03:00:01.283Z,4.07
2023-04-25T03:02:28.351Z,3.35
2023-04-25T03:04:55.428Z,4.10
2023-04-25T03:07:22.491Z,2.80
2023-04-25T03:09:49.441Z,3.72
2023-04-25T03:12:17.093Z,3.88
2023-04-25T03:14:44.060Z,3.75
2023-04-25T03:17:11.362Z,3.45
2023-04-25T03:19:38.349Z,3.95
2023-04-25T03:22:05.376Z,5.43
2023-04-25T03:24:32.458Z,3.90
2023-04-25T03:26:59.421Z,6.20
2023-04-25T03:29:27.610Z,3.20
2023-04-25T03:31:54.642Z,3.83
2023-04-25T03:34:25.267Z,8.10
2023-04-25T03:36:52.257Z,3.75
2023-04-25T03:39:19.276Z,3.40
2023-04-25T03:41:46.278Z,3.85
2023-04-25T03:44:13.265Z,4.85
2023-04-25T03:46:40.251Z,3.38
2023-04-25T03:49:07.325Z,4.90
2023-04-25T03:51:34.380Z,5.22
2023-04-25T03:54:01.563Z,4.00
2023-04-25T03:56:28.682Z,4.13
2023-04-25T03:58:55.731Z,4.05
2023-04-25T04:01:22.813Z,4.28
2023-04-25T04:03:50.294Z,4.63
2023-04-25T04:06:18.081Z,8.55
2023-04-25T04:08:45.023Z,3.92
2023-04-25T04:11:12.082Z,4.15
2023-04-25T04:13:39.344Z,5.22
2023-04-25T04:16:06.786Z,3.20
2023-04-25T04:18:34.517Z,4.93
2023-04-25T04:21:01.536Z,4.88
2023-04-25T04:23:29.159Z,4.38
2023-04-25T04:25:57.382Z,5.15
2023-04-25T04:28:24.396Z,4.85
2023-04-25T04:30:52.399Z,3.63
2023-04-25T04:33:22.384Z,3.85
2023-04-25T04:35:49.690Z,3.78
2023-04-25T04:38:16.715Z,3.58
2023-04-25T04:40:44.300Z,3.88
2023-04-25T04:43:11.406Z,3.95
2023-04-25T04:45:41.618Z,4.10
2023-04-25T04:48:08.741Z,3.75
2023-04-25T04:50:36.720Z,4.18
2023-04-25T04:53:05.490Z,9.25
2023-04-25T04:55:32.498Z,4.45
2023-04-25T04:57:59.462Z,6.95
2023-04-25T05:00:29.549Z,4.20
2023-04-25T05:02:57.672Z,4.25
2023-04-25T05:05:24.924Z,4.00
2023-04-25T05:07:52.118Z,3.90
2023-04-25T05:10:20.102Z,4.30
2023-04-25T05:12:47.152Z,3.85
2023-04-25T05:15:14.758Z,4.65
2023-04-25T05:17:41.817Z,4.43
2023-04-25T05:20:12.273Z,4.60
2023-04-25T05:22:39.226Z,3.95
2023-04-25T05:25:06.671Z,3.83
2023-04-25T05:27:33.659Z,4.53
2023-04-25T05:30:00.922Z,5.25
2023-04-25T05:32:28.363Z,3.63
2023-04-25T05:34:55.558Z,4.35
2023-04-25T05:37:22.927Z,3.33
2023-04-25T05:39:49.908Z,4.38
2023-04-25T05:42:17.125Z,3.88
2023-04-25T05:44:44.184Z,4.18
2023-04-25T05:47:11.322Z,3.97
2023-04-25T05:49:38.306Z,3.75
2023-04-25T05:52:05.482Z,4.50
2023-04-25T05:54:32.505Z,5.13
2023-04-25T05:56:59.568Z,3.95
2023-04-25T05:59:26.910Z,6.40
2023-04-25T06:01:53.932Z,5.10
2023-04-25T06:04:21.566Z,8.13
2023-04-25T06:06:48.752Z,4.40
2023-04-25T06:09:15.740Z,4.22
2023-04-25T06:11:42.794Z,4.00
2023-04-25T06:14:09.891Z,3.83
2023-04-25T06:16:37.372Z,4.30
2023-04-25T06:19:04.391Z,3.95
2023-04-25T06:21:32.734Z,3.83
2023-04-25T06:23:59.752Z,4.70
2023-04-25T06:26:26.737Z,3.15
2023-04-25T06:28:53.794Z,4.05
2023-04-25T06:31:20.949Z,4.15
2023-04-25T06:33:49.593Z,3.95
2023-04-25T06:36:16.784Z,4.38
2023-04-25T06:38:43.743Z,5.30
2023-04-25T06:41:10.758Z,3.70
2023-04-25T06:43:37.748Z,4.82
2023-04-25T06:46:04.741Z,4.45
2023-04-25T06:48:31.690Z,4.60
2023-04-25T06:50:58.732Z,3.53
2023-04-25T06:53:25.832Z,3.83
2023-04-25T06:55:52.872Z,5.30
2023-04-25T06:58:20.180Z,6.75
2023-04-25T07:00:47.282Z,5.78
2023-04-25T07:03:14.548Z,4.45
2023-04-25T07:05:41.898Z,7.43
2023-04-25T07:08:08.913Z,4.15
2023-04-25T07:10:36.243Z,4.90
2023-04-25T07:13:03.271Z,4.60
2023-04-25T07:15:30.434Z,5.78
2023-04-25T07:17:57.453Z,6.10
2023-04-25T07:20:24.479Z,3.72
2023-04-25T07:22:51.480Z,8.38
2023-04-25T07:25:18.850Z,4.50
2023-04-25T07:27:46.043Z,3.70
2023-04-25T07:30:13.480Z,4.78
2023-04-25T07:32:41.032Z,8.50
2023-04-25T07:35:08.961Z,4.57
2023-04-25T07:37:36.784Z,5.13
2023-04-25T07:40:06.699Z,5.30
2023-04-25T07:42:33.699Z,4.47
2023-04-25T07:45:02.136Z,11.27
2023-04-25T07:47:29.183Z,4.35
2023-04-25T07:49:57.341Z,5.00
2023-04-25T07:52:24.448Z,6.50
2023-04-25T07:54:52.146Z,4.15
2023-04-25T07:57:20.640Z,6.55
2023-04-25T07:59:47.750Z,4.47
2023-04-25T08:02:14.844Z,4.57
2023-04-25T08:04:42.102Z,4.38
2023-04-25T08:07:09.262Z,4.00
2023-04-25T08:09:37.841Z,4.78
2023-04-25T08:12:05.555Z,4.20
2023-04-25T08:14:37.056Z,3.85
2023-04-25T08:17:04.911Z,5.35
2023-04-25T08:19:32.001Z,4.25
2023-04-25T08:21:59.009Z,3.67
2023-04-25T08:24:26.394Z,4.03
2023-04-25T08:26:53.746Z,5.72
2023-04-25T08:29:21.218Z,6.38
2023-04-25T08:31:49.517Z,4.20
2023-04-25T08:34:16.621Z,4.45
2023-04-25T08:36:43.669Z,5.47
2023-04-25T08:39:10.668Z,6.27
2023-04-25T08:41:38.761Z,4.47
2023-04-25T08:44:07.505Z,4.80
2023-04-25T08:46:35.189Z,4.13
2023-04-25T08:49:03.541Z,4.30
2023-04-25T08:51:33.901Z,4.07
2023-04-25T08:54:29.869Z,3.80
2023-04-25T08:57:05.786Z,3.30
2023-04-25T08:59:33.930Z,3.93
2023-04-25T09:02:01.880Z,3.40
2023-04-25T09:04:31.733Z,3.83
2023-04-25T09:06:59.672Z,3.40
2023-04-25T09:09:26.692Z,4.90
2023-04-25T09:11:55.803Z,2.50
2023-04-25T09:14:24.201Z,2.70
2023-04-25T09:16:57.045Z,2.67
2023-04-25T09:19:38.825Z,2.80
2023-04-25T09:22:08.414Z,6.37
2023-04-25T09:24:47.259Z,1.40
2023-04-25T09:27:24.152Z,1.47
2023-04-25T09:30:01.694Z,1.70
2023-04-25T09:32:30.038Z,1.42
2023-04-25T09:34:58.795Z,4.00
2023-04-25T09:37:31.134Z,4.43
2023-04-25T09:40:01.531Z,2.20
2023-04-25T09:42:30.128Z,2.50
2023-04-25T09:44:58.278Z,2.53
2023-04-25T09:47:28.003Z,2.30
2023-04-25T09:49:59.761Z,2.20
2023-04-25T09:52:27.606Z,3.28
2023-04-25T09:54:54.701Z,3.35
2023-04-25T09:57:24.420Z,2.30
2023-04-25T09:59:56.322Z,3.95
2023-04-25T10:02:26.289Z,2.50
2023-04-25T10:04:57.435Z,3.65
2023-04-25T10:07:29.500Z,2.63
2023-04-25T10:10:01.955Z,2.40
2023-04-25T10:12:29.260Z,2.53
2023-04-25T10:14:56.527Z,2.20
2023-04-25T10:17:24.593Z,2.20
2023-04-25T10:19:53.277Z,3.13
2023-04-25T10:22:30.578Z,1.40
2023-04-25T10:24:58.448Z,1.63
2023-04-25T10:27:25.811Z,1.43
2023-04-25T10:30:11.724Z,1.50
2023-04-25T10:32:38.874Z,2.00
2023-04-25T10:35:32.735Z,1.67
2023-04-25T10:38:00.742Z,1.50
2023-04-25T10:40:28.341Z,3.53
2023-04-25T10:42:57.561Z,1.50
2023-04-25T10:45:24.711Z,1.40
2023-04-25T10:47:51.821Z,2.20
2023-04-25T10:50:18.981Z,2.40
2023-04-25T10:52:46.010Z,1.50
2023-04-25T10:55:14.287Z,1.80
2023-04-25T10:57:47.390Z,1.80
2023-04-25T11:00:19.711Z,1.87
2023-04-25T11:02:54.436Z,1.30
2023-04-25T11:05:27.098Z,1.10
2023-04-25T11:08:06.447Z,1.80
2023-04-25T11:10:37.867Z,1.27
2023-04-25T11:13:06.199Z,1.10
2023-04-25T11:15:33.371Z,1.77
2023-04-25T11:18:00.941Z,0.75
2023-04-25T11:20:29.929Z,1.00
2023-04-25T11:23:00.777Z,0.97
2023-04-25T11:25:27.995Z,2.25
2023-04-25T11:27:58.425Z,1.00
2023-04-25T11:30:27.346Z,2.53
2023-04-25T11:32:54.775Z,1.57
2023-04-25T11:35:24.240Z,2.83
2023-04-25T11:37:51.587Z,1.97
2023-04-25T11:40:19.048Z,1.30
2023-04-25T11:42:48.195Z,1.60
2023-04-25T11:45:16.091Z,1.03
2023-04-25T11:47:43.241Z,2.53
2023-04-25T11:50:11.125Z,1.10
2023-04-25T11:52:39.419Z,1.40
2023-04-25T11:55:09.711Z,4.50
2023-04-25T11:57:42.754Z,2.07
2023-04-25T12:00:19.802Z,2.50
2023-04-25T12:02:49.188Z,1.63
2023-04-25T12:05:32.321Z,2.27
2023-04-25T12:08:14.088Z,1.87
2023-04-25T12:10:42.643Z,1.30
2023-04-25T12:13:27.067Z,1.60
2023-04-25T12:15:57.526Z,1.50
2023-04-25T12:18:29.054Z,1.70
2023-04-25T12:20:56.726Z,1.97
2023-04-25T12:23:31.868Z,1.43
2023-04-25T12:25:59.112Z,1.20
2023-04-25T12:28:28.821Z,1.23
2023-04-25T12:31:03.465Z,1.20
2023-04-25T12:33:34.040Z,1.60
2023-04-25T12:36:06.523Z,1.00
2023-04-25T12:38:38.843Z,1.70
2023-04-25T12:41:06.610Z,1.20
2023-04-25T12:43:34.060Z,2.23
2023-04-25T12:46:01.302Z,2.73
2023-04-25T12:48:28.343Z,3.20
2023-04-25T12:50:55.388Z,1.37
2023-04-25T12:53:25.463Z,2.00
2023-04-25T12:55:52.683Z,1.20
2023-04-25T12:58:20.479Z,1.43
2023-04-25T13:00:48.044Z,1.40
2023-04-25T13:03:15.486Z,1.10
2023-04-25T13:05:43.294Z,1.30
2023-04-25T13:08:10.337Z,1.60
2023-04-25T13:10:39.389Z,1.13
2023-04-25T13:13:06.482Z,1.57
2023-04-25T13:15:33.633Z,3.57
2023-04-25T13:18:03.060Z,1.20
2023-04-25T13:20:30.110Z,1.50
2023-04-25T13:22:57.148Z,1.63
2023-04-25T13:25:24.208Z,1.40
2023-04-25T13:27:51.267Z,1.20
2023-04-25T13:30:18.782Z,1.50
2023-04-25T13:32:46.127Z,1.70
2023-04-25T13:35:15.141Z,1.90
2023-04-25T13:37:42.240Z,1.23
2023-04-25T13:40:12.394Z,1.60
2023-04-25T13:42:40.637Z,1.43
2023-04-25T13:45:08.769Z,2.43
2023-04-25T13:47:36.093Z,3.13
2023-04-25T13:50:04.462Z,1.37
2023-04-25T13:52:31.888Z,1.20
2023-04-25T13:54:59.530Z,3.63
2023-04-25T13:57:26.984Z,2.00
2023-04-25T13:59:55.173Z,2.83
2023-04-25T14:02:22.440Z,1.33
2023-04-25T14:04:49.582Z,2.40
2023-04-25T14:07:22.562Z,1.47
2023-04-25T14:09:49.691Z,3.43
2023-04-25T14:12:17.891Z,1.40
2023-04-25T14:14:44.904Z,2.43
2023-04-25T14:17:13.199Z,1.30
2023-04-25T14:19:44.592Z,1.60
2023-04-25T14:22:11.603Z,2.17
2023-04-25T14:24:39.407Z,2.70
2023-04-25T14:27:06.426Z,1.37
2023-04-25T14:29:33.628Z,1.23
2023-04-25T14:32:01.281Z,1.42
2023-04-25T14:34:30.579Z,1.50
2023-04-25T14:36:58.510Z,4.40
2023-04-25T14:39:25.600Z,1.30
2023-04-25T14:41:52.619Z,1.80
2023-04-25T14:44:19.628Z,1.50
2023-04-25T14:46:46.662Z,1.77
2023-04-25T14:49:14.282Z,4.20
2023-04-25T14:51:41.297Z,2.45
2023-04-25T14:54:08.927Z,1.50
2023-04-25T14:56:36.024Z,1.20
2023-04-25T14:59:03.103Z,1.83
2023-04-25T15:01:30.328Z,1.42
2023-04-25T15:03:59.089Z,1.25
2023-04-25T15:06:28.407Z,3.00
2023-04-25T15:08:55.835Z,1.75
2023-04-25T15:11:23.470Z,1.40
2023-04-25T15:13:50.826Z,1.25
2023-04-25T15:16:18.361Z,1.60
2023-04-25T15:18:45.461Z,1.48
2023-04-25T15:21:12.603Z,1.88
2023-04-25T15:23:39.600Z,1.65
2023-04-25T15:26:07.171Z,1.75
2023-04-25T15:28:34.866Z,4.60
2023-04-25T15:31:02.126Z,1.30
2023-04-25T15:33:29.260Z,1.20
2023-04-25T15:35:56.385Z,1.10
2023-04-25T15:38:23.445Z,1.38
2023-04-25T15:40:50.860Z,2.17
2023-04-25T15:43:18.000Z,1.02
2023-04-25T15:45:45.791Z,3.85
2023-04-25T15:48:13.273Z,0.80
2023-04-25T15:50:41.577Z,1.10
2023-04-25T15:53:08.569Z,1.17
2023-04-25T15:55:35.701Z,1.30
2023-04-25T15:58:03.095Z,1.38
2023-04-25T16:00:31.422Z,1.00
2023-04-25T16:02:58.680Z,2.78
2023-04-25T16:05:26.014Z,1.02
2023-04-25T16:07:54.238Z,0.90
2023-04-25T16:10:21.955Z,0.98
2023-04-25T16:12:50.343Z,1.10
2023-04-25T16:15:18.060Z,2.78
2023-04-25T16:17:45.163Z,1.30
2023-04-25T16:20:13.510Z,2.55
2023-04-25T16:22:42.580Z,1.20
2023-04-25T16:25:10.489Z,1.25
2023-04-25T16:27:40.276Z,1.60
2023-04-25T16:30:11.814Z,1.23
2023-04-25T16:32:42.570Z,1.25
2023-04-25T16:35:11.042Z,1.35
2023-04-25T16:37:38.079Z,0.98
2023-04-25T16:40:09.085Z,1.15
2023-04-25T16:42:36.825Z,1.45
2023-04-25T16:45:05.542Z,1.95
2023-04-25T16:47:32.772Z,1.20
2023-04-25T16:50:01.920Z,1.77
2023-04-25T16:52:29.245Z,2.10
2023-04-25T16:54:56.587Z,1.60
2023-04-25T16:57:23.563Z,1.58
2023-04-25T16:59:50.648Z,1.52
2023-04-25T17:02:17.808Z,1.98
2023-04-25T17:04:46.546Z,2.33
2023-04-25T17:07:13.631Z,1.98
2023-04-25T17:09:41.395Z,1.80
2023-04-25T17:12:08.724Z,2.60
2023-04-25T17:14:37.254Z,1.90
2023-04-25T17:17:04.562Z,1.80
2023-04-25T17:19:32.448Z,1.73
2023-04-25T17:21:59.817Z,1.73
2023-04-25T17:24:27.228Z,1.65
2023-04-25T17:26:55.415Z,1.42
2023-04-25T17:29:24.107Z,1.80
2023-04-25T17:31:52.786Z,2.08
2023-04-25T17:34:20.079Z,1.92
2023-04-25T17:36:48.287Z,2.05
2023-04-25T17:39:17.763Z,2.03
2023-04-25T17:41:46.474Z,2.83
2023-04-25T17:44:14.245Z,2.20
2023-04-25T17:46:41.631Z,2.13
2023-04-25T17:49:12.418Z,3.75
2023-04-25T17:51:40.855Z,2.28
2023-04-25T17:54:08.590Z,2.30
2023-04-25T17:56:40.723Z,2.42
2023-04-25T17:59:08.236Z,2.55
2023-04-25T18:01:36.275Z,3.28
2023-04-25T18:04:04.656Z,2.10
2023-04-25T18:06:33.665Z,2.90
2023-04-25T18:09:02.535Z,2.10
2023-04-25T18:11:31.136Z,2.60
2023-04-25T18:13:58.817Z,3.00
2023-04-25T18:16:26.609Z,3.17
2023-04-25T18:18:54.561Z,3.25
2023-04-25T18:21:24.350Z,3.75
2023-04-25T18:23:51.886Z,3.50
2023-04-25T18:26:21.418Z,2.72
2023-04-25T18:28:49.287Z,4.22
2023-04-25T18:31:20.723Z,4.45
2023-04-25T18:33:47.857Z,2.85
2023-04-25T18:36:15.698Z,2.67
2023-04-25T18:38:43.300Z,2.75
2023-04-25T18:43:46.757Z,1.98
2023-04-25T18:46:14.243Z,2.08
2023-04-25T18:48:41.766Z,1.60
2023-04-25T18:51:09.658Z,1.58
2023-04-25T18:53:38.108Z,2.55
2023-04-25T18:56:06.219Z,1.60
2023-04-25T18:58:34.807Z,2.35
2023-04-25T19:01:04.330Z,3.13
2023-04-25T19:03:32.524Z,1.95
2023-04-25T19:06:01.701Z,2.70
2023-04-25T19:08:29.588Z,3.20
2023-04-25T19:10:59.697Z,3.10
2023-04-25T19:13:31.454Z,4.47
2023-04-25T19:15:59.360Z,2.88
2023-04-25T19:18:28.259Z,1.95
2023-04-25T19:20:55.785Z,8.18
2023-04-25T19:23:25.737Z,2.47
2023-04-25T19:25:55.179Z,3.05
2023-04-25T19:28:22.364Z,2.30
2023-04-25T19:30:49.979Z,2.55
2023-04-25T19:33:18.053Z,2.17
2023-04-25T19:35:46.215Z,1.77
2023-04-25T19:38:16.194Z,2.20
2023-04-25T19:40:44.348Z,1.90
2023-04-25T19:43:12.348Z,3.78
2023-04-25T19:45:39.977Z,1.83
2023-04-25T19:48:09.283Z,1.50
2023-04-25T19:50:37.349Z,1.35
2023-04-25T19:53:04.799Z,1.55
2023-04-25T19:55:32.648Z,1.35
2023-04-25T19:58:02.345Z,2.70
2023-04-25T20:00:30.086Z,1.50
2023-04-25T20:03:02.556Z,1.73
2023-04-25T20:05:30.094Z,1.60
2023-04-25T20:07:57.393Z,6.47
2023-04-25T20:10:25.054Z,2.03
2023-04-25T20:12:52.689Z,1.90
2023-04-25T20:15:30.103Z,3.10
2023-04-25T20:17:57.721Z,2.05
2023-04-25T20:20:24.934Z,3.47
2023-04-25T20:22:52.073Z,1.92
2023-04-25T20:25:19.509Z,1.60
2023-04-25T20:27:46.785Z,2.40
2023-04-25T20:30:14.383Z,1.80
2023-04-25T20:32:42.291Z,2.65
2023-04-25T20:35:10.284Z,3.08
2023-04-25T20:37:37.817Z,2.47
2023-04-25T20:40:08.151Z,3.17
2023-04-25T20:42:36.532Z,4.70
2023-04-25T20:45:08.015Z,2.83
2023-04-25T20:47:35.547Z,2.47
2023-04-25T20:50:04.245Z,4.57
2023-04-25T20:52:32.710Z,3.15
2023-04-25T20:54:59.929Z,3.97
2023-04-25T20:57:27.106Z,2.92
2023-04-25T20:59:54.112Z,3.38
2023-04-25T21:02:21.383Z,3.63
2023-04-25T21:04:48.466Z,4.70
2023-04-25T21:07:15.727Z,4.38
2023-04-25T21:09:45.880Z,3.53
2023-04-25T21:12:13.002Z,3.10
2023-04-25T21:14:40.115Z,4.45
2023-04-25T21:17:07.203Z,3.90
2023-04-25T21:19:34.469Z,2.75
2023-04-25T21:22:02.540Z,2.95
2023-04-25T21:24:31.333Z,5.15
2023-04-25T21:26:58.330Z,3.75
2023-04-25T21:29:25.502Z,3.35
2023-04-25T21:31:53.160Z,3.20
2023-04-25T21:34:20.273Z,4.45
2023-04-25T21:36:47.318Z,3.10
2023-04-25T21:39:15.483Z,5.05
2023-04-25T21:41:44.524Z,3.60
2023-04-25T21:44:12.769Z,3.72
2023-04-25T21:46:39.930Z,4.30
2023-04-25T21:49:07.470Z,5.05
2023-04-25T21:51:34.479Z,6.75
2023-04-25T21:54:05.547Z,5.63
2023-04-25T21:56:33.199Z,6.45
2023-04-25T21:59:00.221Z,5.38
2023-04-25T22:01:27.974Z,7.25
2023-04-25T22:03:55.334Z,6.72
2023-04-25T22:06:22.512Z,6.82
2023-04-25T22:08:49.935Z,7.18
2023-04-25T22:11:17.658Z,6.65
2023-04-25T22:13:45.679Z,6.78
2023-04-25T22:16:12.782Z,7.10
2023-04-25T22:18:40.771Z,6.40
2023-04-25T22:21:08.830Z,6.20
2023-04-25T22:23:37.557Z,5.97
2023-04-25T22:26:05.581Z,8.95
2023-04-25T22:28:33.879Z,8.57
2023-04-25T22:31:01.045Z,5.75
2023-04-25T22:33:28.167Z,12.68
2023-04-25T22:35:55.194Z,8.15
2023-04-25T22:38:22.262Z,6.20
2023-04-25T22:40:49.424Z,5.75
2023-04-25T22:43:17.239Z,6.90
2023-04-25T22:45:44.297Z,5.93
2023-04-25T22:48:11.467Z,9.13
2023-04-25T22:50:40.961Z,6.88
2023-04-25T22:53:10.353Z,8.50
2023-04-25T22:55:37.390Z,6.95
2023-04-25T22:58:05.089Z,11.00
2023-04-25T23:00:34.551Z,9.63
2023-04-25T23:03:04.317Z,8.80
2023-04-25T23:05:33.220Z,8.50
2023-04-25T23:08:00.347Z,7.93
2023-04-25T23:10:28.575Z,6.82
2023-04-25T23:12:58.314Z,7.07
2023-04-25T23:15:27.902Z,8.57
2023-04-25T23:17:55.012Z,7.95
2023-04-25T23:20:22.110Z,6.55
2023-04-25T23:22:49.813Z,7.30
2023-04-25T23:25:17.502Z,7.65
2023-04-25T23:27:45.242Z,6.85
2023-04-25T23:30:13.344Z,8.30
2023-04-25T23:32:40.691Z,6.57
2023-04-25T23:35:08.421Z,10.73
2023-04-25T23:37:37.337Z,7.13
2023-04-25T23:40:12.610Z,5.97
2023-04-25T23:42:41.463Z,7.75
2023-04-25T23:45:09.581Z,7.72
2023-04-25T23:47:36.857Z,9.48
2023-04-25T23:50:04.890Z,10.60
2023-04-25T23:52:32.188Z,7.72
2023-04-25T23:54:59.261Z,8.55
2023-04-25T23:57:26.315Z,8.10
2023-04-25T23:59:53.386Z,6.70
